2014 - Thriller 5K Thriller 5K


2014 - Thriller 5K

Age Group Results

October 17, 2014


Classic Race Services, LLC Classic Race Services


Men: Top Finishers 0-10 11-14 15-19 20-24 25-29 30-34 35-39 40-44 45-49 50-54 55-59 60-64 65-69 75-99
Women: Top Finishers 0-10 11-14 15-19 20-24 25-29 30-34 35-39 40-44 45-49 50-54 55-59

Thriller 5K

Top

Male Overall Winners

Place Name City Bib No Age Overall Total Time Pace
1 Tommy Templeman Snellville GA 921 18 1 17:55.0 5:47/M
Top

Female Overall Winners

Place Name City Bib No Age Overall Total Time Pace
1 Bekah Houston Rocky Face GA 317 20 5 21:12.3 6:50/M
Top

Male Masters Winners

Place Name City Bib No Age Overall Total Time Pace
1 Jason Childre Milledgeville GA 382 45 2 20:00.7 6:27/M
Top

Female Masters Winners

Place Name City Bib No Age Overall Total Time Pace
1 Dona Watkins Saint Simons Island GA 325 46 12 22:20.8 7:12/M
Top

Male 10 and under

Place Name City Bib No Age Overall Total Time Pace
1 Nick Gillian Milledgeville GA 84 9 255 52:46.0 17:01/M
Top

Female 10 and under

Place Name City Bib No Age Overall Total Time Pace
1 Delaney Pearson Milledgeville GA 378 10 99 32:36.7 10:31/M
2 Audrey Uzzo Eatonton GA 272 9 264 55:37.7 17:56/M
Top

Male 11 to 14

Place Name City Bib No Age Overall Total Time Pace
1 Mason Mitchell Farmington GA 311 13 77 30:04.5 9:42/M
2 Boston Forbes Woodstock GA 357 11 171 40:30.7 13:04/M
3 Jack Forbes Woodstock GA 356 13 174 40:38.6 13:06/M
4 Hutch Wheeler Bartow GA 282 13 216 44:59.4 14:31/M
5 Christian Finley Loganville GA 72 11 220 45:59.7 14:50/M
6 Tamara Kennedy Milledgeville GA 130 13 265 55:55.3 18:02/M
Top

Female 11 to 14

Place Name City Bib No Age Overall Total Time Pace
1 Natalie Cummings Loganville GA 50 12 42 25:41.0 8:17/M
2 Abby Snow Milledgeville GA 336 12 136 35:27.0 11:26/M
3 Kimberly Smith Milledgeville GA 242 14 229 47:05.7 15:11/M
4 Alyssa Bissonnette Sautee Nacoochee GA 16 12 252 51:14.8 16:32/M
5 Josey Gillian Milledgeville GA 83 13 266 55:58.6 18:03/M
Top

Male 15 to 19

Place Name City Bib No Age Overall Total Time Pace
1 Tommy Templeman Snellville GA 921 18 1 17:55.0 5:47/M
2 Max Anderson Fayetteville GA 380 18 7 21:23.4 6:54/M
3 David Youngblood Milledgeville GA 299 19 14 22:32.4 7:16/M
4 Kevin Byrd Eatonton GA 34 17 18 23:02.4 7:26/M
5 Joshua Hudson Eatonton GA 114 17 19 23:02.7 7:26/M
6 Trevor Palmer Sautee Nacoochee GA 190 18 20 23:06.3 7:27/M
7 Jacob McCranie Eatonton GA 159 19 37 25:22.9 8:11/M
8 Jack Johnston Mansfield GA 122 15 54 27:17.6 8:48/M
9 Timmy Murphy Marietta GA 179 19 55 27:25.0 8:51/M
10 Jackson Smith Alpharetta GA 385 17 59 27:45.9 8:57/M
11 Lucas Schiavinato Suwanee GA 221 16 62 28:11.6 9:05/M
12 Thomas Adams 369 19 64 28:13.5 9:06/M
13 Tyler Russell Buckhead GA 218 19 82 30:19.6 9:47/M
14 Austin Henry Brookhaven GA 105 19 95 32:11.4 10:23/M
15 Michael Marques Milledgeville GA 149 18 135 35:15.4 11:22/M
16 Trenton Little Buford GA 340 18 184 41:45.7 13:28/M
17 Wesley Ayres Eatonton GA 7 17 215 44:40.5 14:25/M
Top

Female 15 to 19

Place Name City Bib No Age Overall Total Time Pace
1 Alyssa Varsalona Marietta GA 273 19 25 23:52.1 7:42/M
2 Margo Rothstein Athens GA 320 18 29 24:19.9 7:51/M
3 Hannah Aiken Atlanta GA 2 19 36 25:21.0 8:11/M
4 Christina Pitts Milledgeville GA 197 19 39 25:29.2 8:13/M
5 Emory Martin Peachtree City GA 359 18 43 25:43.5 8:18/M
6 Hannah Garlick Woodstock GA 79 19 61 27:51.7 8:59/M
7 Nora Stone Lawrenceville GA 254 18 66 28:49.1 9:18/M
8 Emma Kane Cumming GA 128 18 68 28:55.6 9:20/M
9 Mackenzie Roux Milledgeville GA 217 18 72 29:18.8 9:27/M
10 Sarah Sinclair Duluth GA 239 19 73 29:31.8 9:31/M
11 Megan Simons Marietta GA 237 19 75 29:39.0 9:34/M
12 Cameron Walters Watkinsville GA 276 18 78 30:04.8 9:42/M
13 Joann Mallory Lawrenceville GA 148 19 83 30:20.0 9:47/M
14 Emily Dunn Milledgeville GA 61 19 98 32:35.3 10:31/M
15 Eve Wise Johns Creek GA 292 18 100 32:39.2 10:32/M
16 Callie Waters Milledgeville GA 277 18 101 32:39.9 10:32/M
17 Amy Glantzberg Acworth GA 87 19 102 32:40.4 10:32/M
18 Kelly Higgins Marietta GA 321 18 115 34:15.2 11:03/M
19 Sydney Huseby Roswell GA 115 19 116 34:15.5 11:03/M
20 Caeli Chambers Demorest GA 39 19 121 34:25.8 11:06/M
21 Jordan Salinas Macon GA 376 19 122 34:29.8 11:07/M
22 Ellis Larson Alpharetta GA 136 19 127 34:38.9 11:10/M
23 Nicole Mandato 364 19 128 34:39.5 11:11/M
24 April Ledbetter Dacula GA 138 19 132 35:12.7 11:21/M
25 Cassidy Culberson Dacula GA 328 19 133 35:12.9 11:21/M
26 Katherine Malcolm Marietta GA 327 19 134 35:13.1 11:22/M
27 Jordan Arnold Alpharetta GA 6 19 137 35:27.6 11:26/M
28 Kacie Bapst Cumming GA 10 18 138 35:27.8 11:26/M
29 Rachel Renbarger Duluth GA 206 18 139 35:35.3 11:29/M
30 Katherine Blaha Kennesaw GA 19 18 147 36:24.1 11:45/M
31 Madison Cravey Milledgeville GA 45 19 148 36:24.5 11:45/M
32 Jennifer Jacobs Cumming GA 118 18 151 37:04.0 11:57/M
33 Anna-Lynn Hickey Milledgeville GA 109 18 152 37:21.5 12:03/M
34 Mandi Brewer Lawrenceville GA 25 18 168 39:52.4 12:52/M
35 Susan Bloom Atlanta GA 337 19 169 39:53.2 12:52/M
36 Clare Baggett Cartersville GA 8 16 179 41:11.5 13:17/M
37 Kate Justus Cartersville GA 127 16 180 41:11.9 13:17/M
38 Lauren Nielly Canton GA 183 18 183 41:43.1 13:27/M
39 Margaret Robinson Moultrie GA 214 19 193 42:35.2 13:44/M
40 Amber Akers Valdosta GA 3 19 197 42:46.6 13:48/M
41 Jennifer Sokolow Milledgeville GA 245 19 199 42:50.7 13:49/M
42 Madison Feuerbach Norcross GA 69 18 201 42:58.9 13:52/M
43 Briana Rondinone Alpharetta GA 215 19 202 43:00.5 13:52/M
44 Katie Lee 8379 19 203 43:00.8 13:52/M
45 Maddie Von Bereghy Milton GA 274 18 204 43:01.1 13:53/M
46 Bailey Fabricius Fayetteville GA 66 18 205 43:08.0 13:55/M
47 Louise Studdard Atlanta GA 259 19 206 43:11.5 13:56/M
48 Emma Nortje Clarkston GA 185 18 207 43:11.7 13:56/M
49 Kaitlin Forbes Smyrna GA 77 19 210 43:40.6 14:05/M
50 Josie Bagwell Milledgeville GA 9 19 211 43:46.2 14:07/M
51 Christal Reincher Jonesboro GA 203 19 212 43:46.6 14:07/M
52 Brittany McCranie Eatonton GA 158 16 213 44:39.9 14:24/M
53 Brooke Moore Eatonton GA 171 19 214 44:40.1 14:25/M
54 Elizabeth Gillis Suwanee GA 86 18 221 46:04.8 14:52/M
55 Makayla Chrismon Alpharetta GA 41 18 223 46:29.5 15:00/M
56 Nicole Justice Canton GA 125 19 224 46:33.9 15:01/M
57 Danielle Matthews Sugar Hill GA 152 18 225 46:38.8 15:03/M
58 Morgan Henderson Sugar Hill GA 104 19 226 46:40.9 15:03/M
59 Claudia De La Rosa Alpharetta GA 53 18 232 47:33.1 15:20/M
60 Lindsey Sewell Bremen GA 232 18 236 48:32.8 15:39/M
61 Caitlyn Dupre Eatotonton GA 62 19 241 49:06.4 15:50/M
62 Sydney Chacon Sautee Nacoochee GA 38 19 242 49:06.6 15:50/M
63 Caroline Elliott Alpharetta GA 65 18 243 49:10.8 15:52/M
64 Ashton Serff Alpharetta GA 226 18 244 49:11.0 15:52/M
65 Kaitlin Heidt Milledgeville GA 100 19 247 50:18.4 16:14/M
66 Stephanie Soll Marietta GA 246 18 262 55:16.6 17:50/M
Top

Male 20 to 24

Place Name City Bib No Age Overall Total Time Pace
1 Colin Shirley Powder Springs GA 234 20 3 20:38.6 6:39/M
2 Jonathan Golden Roswell GA 304 20 6 21:13.8 6:51/M
3 Jonathan Erickson Dawsonville GA 379 20 11 21:58.9 7:05/M
4 Cameron Jackson Milledgeville GA 117 21 15 22:36.6 7:17/M
5 Will Mickelens 374 21 23 23:46.6 7:40/M
6 Kevin Howard Martinez GA 112 20 28 24:12.7 7:48/M
7 Patrick Sieland Milledgeville GA 383 20 31 24:42.2 7:58/M
8 Jimmy Shea Milledgeville GA 233 20 32 24:42.7 7:58/M
9 Griffin Smith Milledgeville GA 313 21 33 24:46.3 7:59/M
10 Miles Skedsvold Atlanta GA 241 20 35 24:58.5 8:03/M
11 Daniel Trust Bonaire GA 381 23 45 25:51.5 8:20/M
12 Riko Ricks Harlem GA 209 24 49 26:32.5 8:34/M
13 Brad Williams Augusta GA 286 23 52 27:14.2 8:47/M
14 Morgan Barnhardt Suwanee GA 11 20 60 27:49.9 8:58/M
15 Sean Carflon 370 21 63 28:12.8 9:06/M
16 Matthew Weiss Johns Creek GA 279 20 69 28:58.8 9:21/M
17 Bryson Threatt Milledgeville GA 268 20 85 30:31.8 9:51/M
18 Devin Fakhook Milledgeville GA 67 20 88 30:46.7 9:55/M
19 Jake Hester Winder GA 108 20 103 33:04.5 10:40/M
20 Will Newman Milledgeville GA 182 20 109 33:46.9 10:54/M
21 John Hoerner Auburn AL 111 20 144 35:49.7 11:33/M
22 Brett Card Milledgeville GA 37 20 172 40:35.0 13:05/M
23 Peyton Janes Greensboro GA 119 22 177 40:53.8 13:11/M
24 Tom Dent Macon GA 58 21 187 42:16.1 13:38/M
25 Timothy Dykes Gordon GA 353 23 188 42:18.8 13:39/M
26 Bryce Blewett Springfield GA 22 20 240 49:05.2 15:50/M
Top

Female 20 to 24

Place Name City Bib No Age Overall Total Time Pace
1 Bekah Houston Rocky Face GA 317 20 5 21:12.3 6:50/M
2 Maddie Anderskow Macon GA 388 20 8 21:31.0 6:56/M
3 Kayla Vanboven Milledgeville GA 348 24 16 22:40.8 7:19/M
4 Torianna Wilson Alpharetta GA 384 20 26 23:53.3 7:42/M
5 Grier Marzendorfer 349 20 30 24:26.1 7:53/M
6 Peyton White Marietta GA 387 20 34 24:50.1 8:01/M
7 Tori Pateuk Johns Creek GA 192 20 41 25:34.1 8:15/M
8 Abbigale Sparks Milledgeville GA 247 22 46 25:52.6 8:21/M
9 Suzy Ricks Harlem GA 210 23 48 26:31.5 8:33/M
10 Carla La Rotta Milledgeville GA 133 21 50 26:40.1 8:36/M
11 Paige Reyhan Marietta GA 346 23 51 27:13.7 8:47/M
12 Melissa Bryan Bishop GA 29 21 53 27:14.5 8:47/M
13 Julia Eck Milledgeville GA 350 20 56 27:33.6 8:53/M
14 Em Baynes Greensboro GA 13 20 58 27:45.5 8:57/M
15 Taylor Crow Cumming GA 48 20 65 28:17.1 9:07/M
16 Marissa Tillisun Marietta GA 307 20 76 29:49.4 9:37/M
17 Tara Mayfield Milledgeville GA 154 20 84 30:31.5 9:51/M
18 Kellie Shirley Powder Springs GA 236 21 90 31:11.7 10:04/M
19 Kelsie McDuffie Milledgeville GA 160 20 93 31:30.6 10:10/M
20 Cayla Brantley Milledgeville GA 23 20 104 33:05.2 10:40/M
21 Andrea Rainoff Milledgeville GA 389 20 107 33:27.1 10:47/M
22 Kaylin Thomason Madison GA 266 21 113 34:03.7 10:59/M
23 Jamie Moore Milledgeville GA 175 21 114 34:04.5 10:59/M
24 Kaiti Lucas Sandersville GA 145 21 129 34:40.1 11:11/M
25 Payton Burchfield Sharpsburg GA 31 20 143 35:49.5 11:33/M
26 Hannah Hagley Newnan GA 96 20 145 35:56.0 11:35/M
27 Julie Coppedge Milledgeville GA 44 21 146 35:56.2 11:35/M
28 Kaitlin Reedy Gordon ACT 201 21 154 37:48.0 12:12/M
29 Natalie Daniel Covington GA 51 24 157 38:09.6 12:18/M
30 Layne Newman Milledgeville GA 181 20 162 39:08.4 12:37/M
31 Jenifer Moore Alpharetta GA 176 20 163 39:21.4 12:42/M
32 Ali Orr Athens GA 187 22 166 39:44.8 12:49/M
33 Kailey Page Monticello GA 318 20 170 39:59.4 12:54/M
34 Dana Durham Greensboro GA 63 20 178 40:54.2 13:12/M
35 Amber Stubbs Gordon GA 352 23 189 42:21.5 13:40/M
36 Briana Lee Milledgeville GA 338 23 190 42:27.0 13:42/M
37 Alexa Deleva Marietta GA 57 20 192 42:34.6 13:44/M
38 Heather Beck Eatonton GA 14 20 217 45:18.4 14:37/M
39 Chloe Parker Milledgeville GA 191 20 235 48:16.7 15:34/M
40 Haley McBay Madison GA 156 23 257 52:55.2 17:04/M
41 Lindsay Petrey Milledgeville GA 195 20 259 54:03.9 17:26/M
42 Allie Jackson Sandersville GA 116 20 260 54:55.8 17:43/M
43 Chelsie Moore Milledgeville GA 172 21 263 55:37.1 17:56/M
44 Gray Lewis Waynesboro GA 140 20 271 57:27.8 18:32/M
45 Laney Lewis Waynesboro GA 141 22 272 57:30.6 18:33/M
Top

Male 25 to 29

Place Name City Bib No Age Overall Total Time Pace
1 Jordan Norville Milledgeville GA 186 28 9 21:38.7 6:59/M
2 Josh Coffey 390 29 13 22:27.7 7:15/M
3 Eric Griffeth Milledgeville GA 343 26 70 29:15.0 9:26/M
4 Steven Wright Milledgeville GA 298 25 71 29:18.6 9:27/M
5 Jared Hawkins Milledgeville GA 98 26 96 32:13.0 10:24/M
6 David Middleton 392 28 117 34:17.8 11:04/M
7 Aaron Jackson Gordon GA 391 28 130 34:55.9 11:16/M
8 Max Grimm Atlanta GA 94 29 150 36:46.1 11:52/M
9 Clay Dungan Milledgeville GA 60 28 194 42:38.1 13:45/M
Top

Female 25 to 29

Place Name City Bib No Age Overall Total Time Pace
1 Hannah Watkins Saint Simons Island GA 326 28 111 33:54.1 10:56/M
2 Candace Griffeth Milledgeville GA 344 26 112 33:58.1 10:57/M
3 Amber Segers Demorest GA 225 25 120 34:25.3 11:06/M
4 Rachael Herringdine Milledgeville GA 107 27 123 34:30.2 11:08/M
5 Shannon Stubbs Milledgeville GA 323 29 131 35:11.7 11:21/M
6 Brittany Steele Acworth GA 250 28 140 35:44.6 11:32/M
7 Melanie Hornibrook Monticello GA 976 29 141 35:48.9 11:33/M
8 Alex Herren Gray GA 106 29 142 35:49.1 11:33/M
9 Claire Thompson Covington GA 267 29 155 37:59.6 12:15/M
10 Taylor Widuch Milledgeville GA 284 25 165 39:38.3 12:47/M
11 Amy Winfrey Milledgeville GA 291 27 175 40:53.0 13:11/M
12 Jennifer Minshew Milledgeville GA 169 29 198 42:48.1 13:48/M
13 Jenna Grimes Milledgeville GA 93 27 227 46:50.8 15:06/M
Top

Male 30 to 34

Place Name City Bib No Age Overall Total Time Pace
1 Matthew Stubbs Milledgeville GA 258 33 79 30:16.1 9:46/M
2 Nath Bacon Milledgeville GA 322 34 80 30:16.3 9:46/M
3 Daniel Cameron Milledgeville GA 342 32 118 34:21.3 11:05/M
4 Dustin Jenkins Atlanta GA 120 32 176 40:53.4 13:11/M
5 Joe Paschal Milledgeville GA 316 33 253 51:25.8 16:35/M
Top

Female 30 to 34

Place Name City Bib No Age Overall Total Time Pace
1 Shannon Roper Monticello GA 216 32 57 27:36.5 8:54/M
2 Laci Zielinski Watkinsville GA 300 34 87 30:45.1 9:55/M
3 Amy Miller Monroe GA 64 31 94 31:49.2 10:16/M
4 Amber Reeves Covington GA 202 34 181 41:24.8 13:21/M
5 Jenniofer Lee Stockbridge GA 351 32 182 41:28.5 13:23/M
6 Niki Smith Milledgeville GA 243 33 228 47:05.3 15:11/M
7 Jeanna Sanders Byron GA 219 33 238 48:47.1 15:44/M
8 Jamie Heber Fort Valley GA 99 33 239 48:51.1 15:45/M
9 Crystal Taylor Milledgeville GA 363 32 249 50:52.3 16:25/M
Top

Male 35 to 39

Place Name City Bib No Age Overall Total Time Pace
1 Colin Moore Milledgeville GA 173 39 22 23:41.8 7:38/M
2 Edward Starling Mcintyre GA 249 38 27 23:57.1 7:44/M
3 Daniel Teets Haddock GA 263 39 156 38:05.8 12:17/M
4 John Adams Daphne AL 1 36 185 41:47.8 13:29/M
5 Marcus Robinson Milledgeville GA 213 38 219 45:32.7 14:41/M
Top

Female 35 to 39

Place Name City Bib No Age Overall Total Time Pace
1 Amy Cummings Loganville GA 49 38 44 25:46.5 8:19/M
2 Hallie Cheek Hull GA 40 35 81 30:19.4 9:47/M
3 Leeann Robinson Milledgeville GA 212 36 110 33:51.4 10:55/M
4 Tina Gillian Milledgeville GA 85 39 258 53:11.9 17:09/M
Top

Male 40 to 44

Place Name City Bib No Age Overall Total Time Pace
1 Christian Griffith Norcross GA 91 44 4 21:09.1 6:49/M
2 Tom Glover Milledgeville GA 88 44 108 33:28.6 10:48/M
3 David Thompson 377 41 125 34:38.1 11:10/M
4 Keith Kelly Dublin GA 365 42 160 38:38.3 12:28/M
5 Brian Finley Loganville GA 71 43 218 45:30.6 14:41/M
Top

Female 40 to 44

Place Name City Bib No Age Overall Total Time Pace
1 Ashley Harrington Milledgeville GA 335 41 86 30:40.6 9:54/M
2 Babette Griffith Atlanta GA 90 43 105 33:15.5 10:44/M
3 Dawn Wood Marietta GA 297 44 106 33:17.8 10:44/M
4 Dannielle Maldonado Milledgeville GA 360 44 119 34:24.8 11:06/M
5 Lisa Larson Alpharetta GA 137 43 126 34:38.4 11:10/M
6 Cindy Bissonnette Sautee Nacoochee GA 17 41 250 50:59.8 16:27/M
7 Tonya Swain Loganville GA 261 42 270 57:03.4 18:24/M
Top

Male 45 to 49

Place Name City Bib No Age Overall Total Time Pace
1 Jason Childre Milledgeville GA 382 45 2 20:00.7 6:27/M
2 Mark Stephens Loganville GA 251 49 17 22:45.7 7:20/M
3 Brad Bell Milledgeville GA 333 46 21 23:35.7 7:36/M
4 Patrick Gartland Milledgeville GA 361 45 24 23:49.8 7:41/M
5 Gary Usry Greensboro GA 271 49 40 25:30.1 8:14/M
6 Gary Schreter Norcross GA 224 48 158 38:13.6 12:20/M
7 Rick Schiavinato Suwanee GA 222 48 196 42:40.9 13:46/M
8 Jeff Kleemeier Mcdonough GA 131 49 230 47:23.1 15:17/M
9 Ron Buice 366 46 267 56:01.1 18:04/M
Top

Female 45 to 49

Place Name City Bib No Age Overall Total Time Pace
1 Dona Watkins Saint Simons Island GA 325 46 12 22:20.8 7:12/M
2 Stephanie Welch Eatonton GA 280 45 124 34:30.7 11:08/M
3 Juliet Malcom Monroe GA 147 45 149 36:34.4 11:48/M
4 Angie Harper Macon GA 97 46 153 37:31.8 12:06/M
5 Dawn Schreter Norcross GA 223 47 159 38:33.2 12:26/M
6 Michelle Finley Loganville GA 73 48 161 38:39.4 12:28/M
7 Terri Mayfield Flowery Branch GA 155 49 164 39:28.9 12:44/M
8 Cheryl Forbes Woodstock GA 354 48 186 42:10.3 13:36/M
9 Stacey Keaton Milledgeville GA 129 45 195 42:38.5 13:45/M
10 Pamela Gallo Peachtree City GA 78 47 208 43:37.5 14:04/M
11 Scarlett Mitchell Farmington GA 310 49 234 48:15.1 15:34/M
12 Leah Hobgoid Cartersville GA 110 49 273 57:54.3 18:41/M
Top

Male 50 to 54

Place Name City Bib No Age Overall Total Time Pace
1 Donnie Chaffin Hampton GA 341 54 10 21:53.8 7:04/M
2 Jim Moore Alpharetta GA 177 52 38 25:27.4 8:13/M
3 Martin Mickalonis 373 52 47 25:52.8 8:21/M
4 Tony Wolf Roswell GA 295 53 74 29:36.1 9:33/M
5 Clark Mayfield Flowery Branch GA 153 51 97 32:30.9 10:29/M
6 Patrick Noonan Peachtree City GA 184 53 209 43:37.9 14:04/M
7 John Forbes Woodstock GA 355 53 222 46:11.3 14:54/M
8 Stan Mitchell Farmington GA 312 51 233 48:11.3 15:33/M
Top

Female 50 to 54

Place Name City Bib No Age Overall Total Time Pace
1 Kim Michalonis Warner Robins GA 375 50 91 31:18.5 10:06/M
2 Garol Orr Braselton GA 189 51 167 39:51.5 12:51/M
3 Karen Meeks Sparta GA 164 51 173 40:35.8 13:05/M
4 Catherine Wolf Roswell GA 294 51 191 42:32.9 13:43/M
5 Sheila Kleemeier Mcdonough GA 132 52 231 47:24.1 15:17/M
6 Julie Sewell Bremen GA 230 54 237 48:43.1 15:43/M
7 Penelope Beck Mcdonough GA 15 54 248 50:31.3 16:18/M
8 Melanie Denton Milledgeville GA 59 50 254 52:43.0 17:00/M
9 Jena McBay Madison GA 157 51 256 52:54.3 17:04/M
10 Susan Moore Mcdonough GA 178 52 261 54:56.1 17:43/M
11 Laura Alonso Sugar Hill GA 5 53 268 56:09.6 18:07/M
12 Debbie Justus Cartersville GA 126 50 274 57:56.4 18:41/M
Top

Male 55 to 59

Place Name City Bib No Age Overall Total Time Pace
1 Terry Stone Lawrenceville GA 255 56 67 28:49.3 9:18/M
2 Tommy Gilstrap Mcdonough GA 330 57 89 31:02.8 10:01/M
Top

Female 55 to 59

Place Name City Bib No Age Overall Total Time Pace
1 Cindi Lee Milledgeville GA 339 56 200 42:51.0 13:49/M
2 Melinda Heidt Marietta GA 101 55 246 50:17.4 16:13/M
Top

Male 60 to 64

Place Name City Bib No Age Overall Total Time Pace
1 Steve Hebling 996 62 92 31:23.2 10:07/M
2 Javier Alonso Sugar Hill GA 4 61 269 56:10.1 18:07/M
Top

Male 65 to 69

Place Name City Bib No Age Overall Total Time Pace
1 Roger Wilkes Demorest GA 285 68 251 51:07.3 16:29/M
Top

Male 75 and over

Place Name City Bib No Age Overall Total Time Pace
1 Thomas Linski Milledgeville GA 142 75 245 49:59.9 16:07/M